עמוד ראשי
METAR-TAF:

METAR-TAF

שדות תעופה :

פורט וילה, Efate, ונואטו

קו רוחב: 17-42S, קו אורך: 168-18E, גובה: 20מטר

תצפית מזג אוויר נוכחית

הדו"ח נערך לפני 36דקות, בשעה 10:00 UTC
רוח 2קשר עם כיוונים משתנים
טמפרטורת 22 צלסיוס
לחות 94%
לחץ 1014 hPa
ראות 10 קילומטר או יותר
עננים פזורים בגובה 2000רגל
מעונן בגובה 12000רגל

METAR: NVVV 151000Z VRB02KT 9999 SCT020 OVC120 22/21 Q1014

זמן: 21:36 (10:36 UTC)

תחזית

הדו"ח נערך לפני 5 שעות ו 36דקות, בשעה 05:00 UTC
תחזית בתוקף מ 15 ב 06 UTC עד 16 ב 06 UTC
רוח 2קשר עם כיוונים משתנים
ראות 10 קילומטר או יותר
עננים פזורים בגובה 2000רגל
עננים בינוניים בגובה 4000רגל
הסתברות 40%
בין IN ו TEUTC
ראות: 9000מטר
עננים בינוניים בגובה 1800רגל
ממטרי גשם קלים,

TAF: NVVV 150500Z 1506/1606 VRB02KT 9999 SCT020 BKN040 PROB40 INTER 1506/1512 9000 -SHRA BKN018

תצפיות ותחזיות מזג אוויר לגבי יותר מ- 4,000 שדות תעופה ברחבי העולם. דוחות METAR ו- TAF.

התחנות הזמינות מסומנות בנקודות צהובות ואדומות על גבי המפה.

העבר את העכבר לנקודה הצבעונית על מנת לראות את שם התחנה.

לאחר מכן, לחץ כדי לראות את תוכן ואת תחזיות מזג האוויר.

כדי לשנות את המפה: לחץ על הכפתורים הירוקים עם הפלוס השחור כדי להתקרב; על הכפתור הירוק עם המקף כדי להתרחק; או בחיצים הירוקים למפות סמוכות.


METAR-TAF: